createdAt,value
2022-10-02T00:01:35.319Z,20.77
2022-10-02T00:04:05.098Z,20.78
2022-10-02T00:06:41.868Z,20.76
2022-10-02T00:09:16.911Z,20.76
2022-10-02T00:11:50.829Z,20.75
2022-10-02T00:14:21.291Z,20.76
2022-10-02T00:16:53.155Z,20.77
2022-10-02T00:19:21.391Z,20.77
2022-10-02T00:22:11.416Z,20.76
2022-10-02T00:24:44.379Z,20.76
2022-10-02T00:27:23.773Z,20.76
2022-10-02T00:29:55.376Z,20.75
2022-10-02T00:32:36.046Z,20.76
2022-10-02T00:35:37.992Z,20.75
2022-10-02T00:38:14.980Z,20.75
2022-10-02T00:41:09.377Z,20.76
2022-10-02T00:43:46.462Z,20.75
2022-10-02T00:46:33.660Z,20.74
2022-10-02T00:49:28.456Z,20.75
2022-10-02T00:52:06.534Z,20.75
2022-10-02T00:55:03.727Z,20.75
2022-10-02T00:57:47.826Z,20.74
2022-10-02T01:00:19.519Z,20.73
2022-10-02T01:02:58.879Z,20.73
2022-10-02T01:05:27.443Z,20.73
2022-10-02T01:07:57.058Z,20.73
2022-10-02T01:10:29.698Z,20.73
2022-10-02T01:12:59.109Z,20.71
2022-10-02T01:15:33.059Z,20.71
2022-10-02T01:18:03.206Z,20.70
2022-10-02T01:20:36.705Z,20.70
2022-10-02T01:23:18.307Z,20.70
2022-10-02T01:25:48.190Z,20.69
2022-10-02T01:28:16.403Z,20.68
2022-10-02T01:30:49.127Z,20.69
2022-10-02T01:33:17.714Z,20.70
2022-10-02T01:35:46.110Z,20.68
2022-10-02T01:38:18.170Z,20.67
2022-10-02T01:40:47.425Z,20.67
2022-10-02T01:43:19.206Z,20.67
2022-10-02T01:46:06.285Z,20.67
2022-10-02T01:48:43.193Z,20.66
2022-10-02T01:51:35.633Z,20.66
2022-10-02T01:54:17.126Z,20.67
2022-10-02T01:56:55.533Z,20.66
2022-10-02T01:59:40.170Z,20.66
2022-10-02T02:02:17.792Z,20.66
2022-10-02T02:04:54.702Z,20.65
2022-10-02T02:07:31.181Z,20.66
2022-10-02T02:10:03.954Z,20.65
2022-10-02T02:12:40.579Z,20.65
2022-10-02T02:15:14.395Z,20.63
2022-10-02T02:17:50.414Z,20.64
2022-10-02T02:20:23.944Z,20.64
2022-10-02T02:22:53.754Z,20.63
2022-10-02T02:25:26.299Z,20.64
2022-10-02T02:28:00.740Z,20.62
2022-10-02T02:30:32.302Z,20.64
2022-10-02T02:33:06.384Z,20.62
2022-10-02T02:35:38.958Z,20.63
2022-10-02T02:38:12.486Z,20.63
2022-10-02T02:40:46.644Z,20.63
2022-10-02T02:43:20.568Z,20.62
2022-10-02T02:45:53.877Z,20.62
2022-10-02T02:48:26.181Z,20.63
2022-10-02T02:51:00.451Z,20.61
2022-10-02T02:53:33.411Z,20.61
2022-10-02T02:56:04.340Z,20.60
2022-10-02T02:58:38.708Z,20.61
2022-10-02T03:01:07.258Z,20.61
2022-10-02T03:03:35.182Z,20.60
2022-10-02T03:06:07.911Z,20.60
2022-10-02T03:08:38.129Z,20.60
2022-10-02T03:11:18.595Z,20.61
2022-10-02T03:14:02.194Z,20.59
2022-10-02T03:16:44.534Z,20.59
2022-10-02T03:19:23.998Z,20.60
2022-10-02T03:22:03.100Z,20.59
2022-10-02T03:24:37.646Z,20.59
2022-10-02T03:27:11.264Z,20.58
2022-10-02T03:29:46.122Z,20.59
2022-10-02T03:32:16.476Z,20.58
2022-10-02T03:34:44.962Z,20.58
2022-10-02T03:37:12.893Z,20.57
2022-10-02T03:39:44.496Z,20.57
2022-10-02T03:42:14.890Z,20.56
2022-10-02T03:44:44.849Z,20.55
2022-10-02T03:47:12.798Z,20.56
2022-10-02T03:49:40.792Z,20.56
2022-10-02T03:52:16.511Z,20.56
2022-10-02T03:54:44.975Z,20.54
2022-10-02T03:57:20.645Z,20.56
2022-10-02T03:59:58.777Z,20.55
2022-10-02T04:02:35.091Z,20.55
2022-10-02T04:05:12.597Z,20.54
2022-10-02T04:07:52.463Z,20.53
2022-10-02T04:10:31.925Z,20.54
2022-10-02T04:13:09.131Z,20.53
2022-10-02T04:15:51.527Z,20.53
2022-10-02T04:18:23.273Z,20.53
2022-10-02T04:20:58.202Z,20.53
2022-10-02T04:23:31.968Z,20.52
2022-10-02T04:26:04.892Z,20.52
2022-10-02T04:28:38.748Z,20.52
2022-10-02T04:31:13.350Z,20.51
2022-10-02T04:33:42.051Z,20.51
2022-10-02T04:36:21.921Z,20.50
2022-10-02T04:39:12.030Z,20.50
2022-10-02T04:42:15.221Z,20.50
2022-10-02T04:45:02.431Z,20.50
2022-10-02T04:47:52.310Z,20.50
2022-10-02T04:50:32.801Z,20.50
2022-10-02T04:53:23.483Z,20.49
2022-10-02T04:56:12.492Z,20.49
2022-10-02T04:58:53.055Z,20.48
2022-10-02T05:01:32.670Z,20.49
2022-10-02T05:04:21.626Z,20.49
2022-10-02T05:07:16.884Z,20.50
2022-10-02T05:09:55.045Z,20.48
2022-10-02T05:12:36.516Z,20.48
2022-10-02T05:15:43.648Z,20.47
2022-10-02T05:18:30.270Z,20.48
2022-10-02T05:21:18.514Z,20.48
2022-10-02T05:24:02.104Z,20.46
2022-10-02T05:26:50.326Z,20.46
2022-10-02T05:29:29.755Z,20.46
2022-10-02T05:32:17.505Z,20.46
2022-10-02T05:35:03.276Z,20.46
2022-10-02T05:37:59.215Z,20.45
2022-10-02T05:40:31.501Z,20.44
2022-10-02T05:43:03.216Z,20.45
2022-10-02T05:45:36.849Z,20.45
2022-10-02T05:48:13.422Z,20.44
2022-10-02T05:50:42.686Z,20.44
2022-10-02T05:53:21.862Z,20.42
2022-10-02T05:56:05.488Z,20.43
2022-10-02T05:58:38.496Z,20.43
2022-10-02T06:01:13.257Z,20.42
2022-10-02T06:03:49.174Z,20.43
2022-10-02T06:06:21.546Z,20.42
2022-10-02T06:08:58.483Z,20.42
2022-10-02T06:11:32.149Z,20.42
2022-10-02T06:14:06.161Z,20.41
2022-10-02T06:16:40.753Z,20.41
2022-10-02T06:19:15.332Z,20.41
2022-10-02T06:21:52.726Z,20.42
2022-10-02T06:24:28.546Z,20.42
2022-10-02T06:27:03.313Z,20.42
2022-10-02T06:29:40.917Z,20.42
2022-10-02T06:32:19.312Z,20.41
2022-10-02T06:34:48.269Z,20.41
2022-10-02T06:37:29.493Z,20.40
2022-10-02T06:40:16.621Z,20.41
2022-10-02T06:42:55.896Z,20.43
2022-10-02T06:45:33.578Z,20.41
2022-10-02T06:48:07.089Z,20.42
2022-10-02T06:50:50.412Z,20.43
2022-10-02T06:53:37.483Z,20.45
2022-10-02T06:56:14.823Z,20.46
2022-10-02T06:58:58.520Z,20.45
2022-10-02T07:01:34.087Z,20.47
2022-10-02T07:04:23.112Z,20.48
2022-10-02T07:07:14.993Z,20.42
2022-10-02T07:10:04.364Z,20.36
2022-10-02T07:12:49.622Z,20.36
2022-10-02T07:15:49.449Z,20.37
2022-10-02T07:18:27.890Z,20.39
2022-10-02T07:21:06.513Z,20.41
2022-10-02T07:23:51.976Z,20.42
2022-10-02T07:26:41.334Z,20.45
2022-10-02T07:29:21.195Z,20.46
2022-10-02T07:32:02.900Z,20.47
2022-10-02T07:34:40.877Z,20.42
2022-10-02T07:37:20.672Z,20.41
2022-10-02T07:40:06.453Z,20.36
2022-10-02T07:42:46.963Z,20.34
2022-10-02T07:45:37.523Z,20.31
2022-10-02T07:48:34.222Z,20.30
2022-10-02T07:51:31.616Z,20.31
2022-10-02T07:54:09.886Z,20.27
2022-10-02T07:56:39.178Z,20.28
2022-10-02T07:59:11.998Z,20.27
2022-10-02T08:01:42.897Z,20.26
2022-10-02T08:04:14.422Z,20.27
2022-10-02T08:06:45.042Z,20.27
2022-10-02T08:09:17.219Z,20.28
2022-10-02T08:11:52.174Z,20.31
2022-10-02T08:14:24.423Z,20.32
2022-10-02T08:16:55.027Z,20.33
2022-10-02T08:19:29.870Z,20.34
2022-10-02T08:22:02.088Z,20.31
2022-10-02T08:24:33.044Z,20.33
2022-10-02T08:27:09.802Z,20.31
2022-10-02T08:29:43.029Z,20.29
2022-10-02T08:32:13.120Z,20.27
2022-10-02T08:34:42.076Z,20.28
2022-10-02T08:37:29.823Z,20.28
2022-10-02T08:40:25.880Z,20.27
2022-10-02T08:43:26.958Z,20.29
2022-10-02T08:46:34.859Z,20.30
2022-10-02T08:49:48.422Z,20.29
2022-10-02T08:52:43.685Z,20.28
2022-10-02T08:55:37.563Z,20.27
2022-10-02T08:58:30.926Z,20.29
2022-10-02T09:01:17.327Z,20.29
2022-10-02T09:04:23.886Z,20.32
2022-10-02T09:07:28.204Z,20.35
2022-10-02T09:10:35.556Z,20.34
2022-10-02T09:13:42.547Z,20.34
2022-10-02T09:16:12.635Z,20.34
2022-10-02T09:18:55.331Z,20.34
2022-10-02T09:21:50.178Z,20.35
2022-10-02T09:24:46.679Z,20.33
2022-10-02T09:27:48.085Z,20.31
2022-10-02T09:30:46.651Z,20.31
2022-10-02T09:33:57.658Z,20.33
2022-10-02T09:36:58.826Z,20.32
2022-10-02T09:40:05.790Z,20.31
2022-10-02T09:43:08.015Z,20.30
2022-10-02T09:46:11.407Z,20.35
2022-10-02T09:49:09.224Z,20.35
2022-10-02T09:52:21.804Z,20.38
2022-10-02T09:55:36.569Z,20.38
2022-10-02T09:58:44.121Z,20.40
2022-10-02T10:01:35.449Z,20.39
2022-10-02T10:05:04.991Z,20.40
2022-10-02T10:08:09.226Z,20.42
2022-10-02T10:11:14.038Z,20.44
2022-10-02T10:14:07.007Z,20.47
2022-10-02T10:17:09.201Z,20.45
2022-10-02T10:20:09.958Z,20.44
2022-10-02T10:23:03.113Z,20.43
2022-10-02T10:26:01.506Z,20.41
2022-10-02T10:28:55.335Z,20.41
2022-10-02T10:31:51.971Z,20.41
2022-10-02T10:34:49.372Z,20.42
2022-10-02T10:37:57.299Z,20.44
2022-10-02T10:40:38.341Z,20.46
2022-10-02T10:43:33.228Z,20.49
2022-10-02T10:46:21.771Z,20.52
2022-10-02T10:49:09.768Z,20.53
2022-10-02T10:51:46.425Z,20.54
2022-10-02T10:54:48.900Z,20.55
2022-10-02T10:57:32.122Z,20.57
2022-10-02T11:00:14.162Z,20.57
2022-10-02T11:02:54.785Z,20.58
2022-10-02T11:05:40.606Z,20.58
2022-10-02T11:08:33.430Z,20.59
2022-10-02T11:11:11.406Z,20.58
2022-10-02T11:13:54.879Z,20.53
2022-10-02T11:17:01.166Z,20.51
2022-10-02T11:19:44.585Z,20.53
2022-10-02T11:22:38.284Z,20.55
2022-10-02T11:25:44.185Z,20.55
2022-10-02T11:28:26.625Z,20.57
2022-10-02T11:31:01.731Z,20.58
2022-10-02T11:33:58.599Z,20.58
2022-10-02T11:36:54.927Z,20.59
2022-10-02T11:40:00.624Z,20.61
2022-10-02T11:43:13.765Z,20.62
2022-10-02T11:46:00.308Z,20.63
2022-10-02T11:48:59.701Z,20.65
2022-10-02T11:51:48.447Z,20.66
2022-10-02T11:54:33.180Z,20.66
2022-10-02T11:57:19.558Z,20.67
2022-10-02T12:00:26.702Z,20.67
2022-10-02T12:03:03.191Z,20.68
2022-10-02T12:05:53.466Z,20.70
2022-10-02T12:08:34.315Z,20.69
2022-10-02T12:11:12.613Z,20.70
2022-10-02T12:14:01.207Z,20.69
2022-10-02T12:16:40.482Z,20.66
2022-10-02T12:19:27.039Z,20.64
2022-10-02T12:22:18.523Z,20.63
2022-10-02T12:25:13.568Z,20.62
2022-10-02T12:27:53.357Z,20.62
2022-10-02T12:30:24.134Z,20.61
2022-10-02T12:33:08.196Z,20.60
2022-10-02T12:35:51.304Z,20.60
2022-10-02T12:38:34.021Z,20.59
2022-10-02T12:41:11.457Z,20.61
2022-10-02T12:44:07.862Z,20.60
2022-10-02T12:47:00.925Z,20.61
2022-10-02T12:49:47.287Z,20.62
2022-10-02T12:52:50.689Z,20.64
2022-10-02T12:55:54.969Z,20.65
2022-10-02T12:58:29.734Z,20.72
2022-10-02T13:01:31.808Z,20.78
2022-10-02T13:04:39.949Z,20.82
2022-10-02T13:07:47.194Z,20.86
2022-10-02T13:10:22.658Z,20.88
2022-10-02T13:13:07.699Z,20.90
2022-10-02T13:15:48.812Z,20.91
2022-10-02T13:18:30.435Z,20.93
2022-10-02T13:21:06.197Z,20.94
2022-10-02T13:23:43.742Z,20.93
2022-10-02T13:26:24.015Z,20.97
2022-10-02T13:29:15.896Z,20.98
2022-10-02T13:31:59.018Z,20.98
2022-10-02T13:34:45.285Z,20.99
2022-10-02T13:37:26.463Z,20.99
2022-10-02T13:40:17.853Z,21.01
2022-10-02T13:43:17.649Z,21.02
2022-10-02T13:45:54.843Z,21.02
2022-10-02T13:48:34.081Z,21.02
2022-10-02T13:51:08.509Z,21.04
2022-10-02T13:53:49.425Z,21.04
2022-10-02T13:56:33.031Z,21.04
2022-10-02T13:59:22.306Z,21.04
2022-10-02T14:02:11.383Z,21.05
2022-10-02T14:04:50.981Z,21.04
2022-10-02T14:07:31.032Z,21.04
2022-10-02T14:10:09.451Z,21.05
2022-10-02T14:12:51.031Z,21.06
2022-10-02T14:15:31.525Z,21.06
2022-10-02T14:18:43.404Z,21.07
2022-10-02T14:21:20.996Z,21.08
2022-10-02T14:24:06.921Z,21.08
2022-10-02T14:26:56.985Z,21.09
2022-10-02T14:29:39.728Z,21.10
2022-10-02T14:32:34.513Z,21.09
2022-10-02T14:35:20.331Z,21.10
2022-10-02T14:38:14.512Z,21.11
2022-10-02T14:40:52.428Z,21.12
2022-10-02T14:43:44.098Z,21.12
2022-10-02T14:46:22.079Z,21.11
2022-10-02T14:49:08.042Z,21.12
2022-10-02T14:51:52.364Z,21.13
2022-10-02T14:54:31.683Z,21.13
2022-10-02T14:57:19.426Z,21.12
2022-10-02T15:00:05.323Z,21.11
2022-10-02T15:02:58.694Z,21.12
2022-10-02T15:05:56.216Z,21.12
2022-10-02T15:08:29.620Z,21.11
2022-10-02T15:10:57.976Z,21.11
2022-10-02T15:13:35.721Z,21.10
2022-10-02T15:16:32.868Z,21.10
2022-10-02T15:19:10.735Z,21.11
2022-10-02T15:21:47.027Z,21.10
2022-10-02T15:24:31.142Z,21.10
2022-10-02T15:27:08.746Z,21.11
2022-10-02T15:29:45.857Z,21.10
2022-10-02T15:32:31.322Z,21.10
2022-10-02T15:35:16.577Z,21.10
2022-10-02T15:38:02.578Z,21.11
2022-10-02T15:40:37.698Z,21.10
2022-10-02T15:43:29.245Z,21.11
2022-10-02T15:46:12.295Z,21.11
2022-10-02T15:49:01.048Z,21.12
2022-10-02T15:51:54.691Z,21.10
2022-10-02T15:54:38.773Z,21.09
2022-10-02T15:57:36.302Z,21.10
2022-10-02T16:00:13.284Z,21.10
2022-10-02T16:03:06.180Z,21.08
2022-10-02T16:05:52.478Z,21.08
2022-10-02T16:08:43.892Z,21.08
2022-10-02T16:11:51.111Z,21.09
2022-10-02T16:14:31.214Z,21.07
2022-10-02T16:17:27.272Z,21.08
2022-10-02T16:20:25.319Z,21.09
2022-10-02T16:23:04.398Z,21.07
2022-10-02T16:25:46.699Z,21.08
2022-10-02T16:28:31.466Z,21.08
2022-10-02T16:31:22.573Z,21.08
2022-10-02T16:34:01.991Z,21.10
2022-10-02T16:36:41.959Z,21.10
2022-10-02T16:39:29.412Z,21.09
2022-10-02T16:42:03.073Z,21.09
2022-10-02T16:44:58.095Z,21.09
2022-10-02T16:47:30.732Z,21.09
2022-10-02T16:50:05.078Z,21.09
2022-10-02T16:52:40.105Z,21.09
2022-10-02T16:55:20.249Z,21.08
2022-10-02T16:58:18.711Z,21.08
2022-10-02T17:00:56.771Z,21.08
2022-10-02T17:03:33.563Z,21.08
2022-10-02T17:06:07.629Z,21.08
2022-10-02T17:08:42.333Z,21.10
2022-10-02T17:11:20.303Z,21.11
2022-10-02T17:13:59.018Z,21.11
2022-10-02T17:16:37.094Z,21.12
2022-10-02T17:19:20.671Z,21.13
2022-10-02T17:21:54.406Z,21.13
2022-10-02T17:24:52.020Z,21.14
2022-10-02T17:27:36.366Z,21.15
2022-10-02T17:30:08.317Z,21.16
2022-10-02T17:32:48.389Z,21.16
2022-10-02T17:35:19.512Z,21.16
2022-10-02T17:38:11.484Z,21.17
2022-10-02T17:40:48.933Z,21.18
2022-10-02T17:43:24.900Z,21.18
2022-10-02T17:46:08.656Z,21.18
2022-10-02T17:48:50.877Z,21.19
2022-10-02T17:51:51.982Z,21.20
2022-10-02T17:54:55.231Z,21.20
2022-10-02T17:57:36.349Z,21.22
2022-10-02T18:00:16.075Z,21.23
2022-10-02T18:03:02.992Z,21.24
2022-10-02T18:05:47.120Z,21.25
2022-10-02T18:08:30.751Z,21.25
2022-10-02T18:11:06.783Z,21.27
2022-10-02T18:14:03.986Z,21.27
2022-10-02T18:16:48.175Z,21.28
2022-10-02T18:19:29.155Z,21.29
2022-10-02T18:22:11.473Z,21.31
2022-10-02T18:25:14.251Z,21.30
2022-10-02T18:28:01.827Z,21.31
2022-10-02T18:30:41.112Z,21.32
2022-10-02T18:33:32.776Z,21.32
2022-10-02T18:36:19.021Z,21.33
2022-10-02T18:38:58.870Z,21.32
2022-10-02T18:41:48.107Z,21.35
2022-10-02T18:44:45.133Z,21.35
2022-10-02T18:47:31.170Z,21.37
2022-10-02T18:50:23.715Z,21.38
2022-10-02T18:52:58.227Z,21.38
2022-10-02T18:56:02.841Z,21.39
2022-10-02T18:58:50.028Z,21.39
2022-10-02T19:01:38.584Z,21.41
2022-10-02T19:04:40.379Z,21.41
2022-10-02T19:07:16.562Z,21.42
2022-10-02T19:09:44.580Z,21.43
2022-10-02T19:12:18.647Z,21.42
2022-10-02T19:14:47.112Z,21.44
2022-10-02T19:17:24.073Z,21.44
2022-10-02T19:19:52.049Z,21.45
2022-10-02T19:22:23.424Z,21.46
2022-10-02T19:24:56.629Z,21.47
2022-10-02T19:27:31.098Z,21.47
2022-10-02T19:30:01.317Z,21.47
2022-10-02T19:32:32.791Z,21.48
2022-10-02T19:35:06.509Z,21.47
2022-10-02T19:37:41.487Z,21.49
2022-10-02T19:40:16.886Z,21.49
2022-10-02T19:42:51.587Z,21.50
2022-10-02T19:45:26.884Z,21.51
2022-10-02T19:47:58.302Z,21.51
2022-10-02T19:50:33.130Z,21.50
2022-10-02T19:53:06.840Z,21.51
2022-10-02T19:55:40.431Z,21.53
2022-10-02T19:58:17.898Z,21.53
2022-10-02T20:00:45.818Z,21.54
2022-10-02T20:03:19.497Z,21.54
2022-10-02T20:05:50.361Z,21.54
2022-10-02T20:08:21.851Z,21.56
2022-10-02T20:10:58.050Z,21.57
2022-10-02T20:13:37.097Z,21.58
2022-10-02T20:16:31.730Z,21.58
2022-10-02T20:18:59.850Z,21.59
2022-10-02T20:21:36.578Z,21.59
2022-10-02T20:24:08.710Z,21.58
2022-10-02T20:26:41.154Z,21.59
2022-10-02T20:29:15.387Z,21.58
2022-10-02T20:31:49.685Z,21.59
2022-10-02T20:34:25.857Z,21.58
2022-10-02T20:36:59.774Z,21.59
2022-10-02T20:39:33.898Z,21.59
2022-10-02T20:42:06.868Z,21.58
2022-10-02T20:44:37.548Z,21.57
2022-10-02T20:47:31.696Z,21.59
2022-10-02T20:50:28.055Z,21.59
2022-10-02T20:53:30.862Z,21.60
2022-10-02T20:56:02.179Z,21.61
2022-10-02T20:59:02.028Z,21.61
2022-10-02T21:01:41.181Z,21.61
2022-10-02T21:04:45.761Z,21.62
2022-10-02T21:07:29.032Z,21.62
2022-10-02T21:10:26.814Z,21.62
2022-10-02T21:13:39.782Z,21.60
2022-10-02T21:16:45.560Z,21.59
2022-10-02T21:19:36.434Z,21.57
2022-10-02T21:22:42.944Z,21.55
2022-10-02T21:25:44.379Z,21.53
2022-10-02T21:28:42.254Z,21.52
2022-10-02T21:31:32.403Z,21.52
2022-10-02T21:34:19.653Z,21.52
2022-10-02T21:36:52.775Z,21.51
2022-10-02T21:43:31.965Z,21.49
2022-10-02T21:46:33.912Z,21.50
2022-10-02T21:49:35.040Z,21.49
2022-10-02T21:52:35.983Z,21.49
2022-10-02T21:55:39.610Z,21.47
2022-10-02T21:58:41.600Z,21.47
2022-10-02T22:01:33.943Z,21.46
2022-10-02T22:04:43.633Z,21.46
2022-10-02T22:07:19.548Z,21.45
2022-10-02T22:09:57.107Z,21.43
2022-10-02T22:12:46.325Z,21.42
2022-10-02T22:15:21.189Z,21.41
2022-10-02T22:17:58.161Z,21.41
2022-10-02T22:20:42.421Z,21.40
2022-10-02T22:23:40.794Z,21.38
2022-10-02T22:26:24.937Z,21.38
2022-10-02T22:28:57.527Z,21.38
2022-10-02T22:31:53.509Z,21.35
2022-10-02T22:34:35.194Z,21.35
2022-10-02T22:37:22.978Z,21.37
2022-10-02T22:40:00.866Z,21.33
2022-10-02T22:42:38.530Z,21.33
2022-10-02T22:45:18.074Z,21.33
2022-10-02T22:47:54.186Z,21.32
2022-10-02T22:50:28.834Z,21.32
2022-10-02T22:53:05.510Z,21.32
2022-10-02T22:55:45.572Z,21.31
2022-10-02T22:58:17.068Z,21.30
2022-10-02T23:00:58.196Z,21.30
2022-10-02T23:03:32.005Z,21.29
2022-10-02T23:06:05.719Z,21.30
2022-10-02T23:08:39.891Z,21.29
2022-10-02T23:11:15.493Z,21.29
2022-10-02T23:13:49.818Z,21.26
2022-10-02T23:16:26.311Z,21.25
2022-10-02T23:19:01.805Z,21.23
2022-10-02T23:21:43.311Z,21.21
2022-10-02T23:24:24.989Z,21.20
2022-10-02T23:26:55.810Z,21.19
2022-10-02T23:29:31.867Z,21.18
2022-10-02T23:32:05.216Z,21.17
2022-10-02T23:34:40.421Z,21.16
2022-10-02T23:37:19.035Z,21.17
2022-10-02T23:39:55.170Z,21.15
2022-10-02T23:42:33.353Z,21.14
2022-10-02T23:45:08.467Z,21.13
2022-10-02T23:47:54.733Z,21.13
2022-10-02T23:50:26.658Z,21.12
2022-10-02T23:53:18.064Z,21.12
2022-10-02T23:55:59.912Z,21.10
2022-10-02T23:58:54.698Z,21.10
